sensor_id;sensor_type;location;lat;lon;timestamp;pressure;altitude;pressure_sealevel;temperature;humidity
20023;BME280;10172;42.054;24.546;2023-03-26T00:01:24;97466.91;;;11.01;100.00
20023;BME280;10172;42.054;24.546;2023-03-26T00:03:51;97470.13;;;11.15;100.00
20023;BME280;10172;42.054;24.546;2023-03-26T00:06:19;97461.78;;;11.09;100.00
20023;BME280;10172;42.054;24.546;2023-03-26T00:08:47;97447.53;;;11.30;100.00
20023;BME280;10172;42.054;24.546;2023-03-26T00:11:15;97428.00;;;11.41;100.00
20023;BME280;10172;42.054;24.546;2023-03-26T00:13:42;97441.25;;;11.31;100.00
20023;BME280;10172;42.054;24.546;2023-03-26T00:16:10;97443.47;;;10.95;100.00
20023;BME280;10172;42.054;24.546;2023-03-26T00:18:36;97447.22;;;11.24;100.00
20023;BME280;10172;42.054;24.546;2023-03-26T00:21:04;97450.38;;;10.97;100.00
20023;BME280;10172;42.054;24.546;2023-03-26T00:23:31;97445.44;;;10.81;100.00
20023;BME280;10172;42.054;24.546;2023-03-26T00:25:59;97435.22;;;11.29;100.00
20023;BME280;10172;42.054;24.546;2023-03-26T00:28:25;97428.72;;;11.84;100.00
20023;BME280;10172;42.054;24.546;2023-03-26T00:31:03;97429.97;;;11.39;100.00
20023;BME280;10172;42.054;24.546;2023-03-26T00:33:29;97421.03;;;10.76;100.00
20023;BME280;10172;42.054;24.546;2023-03-26T00:35:58;97416.53;;;10.12;100.00
20023;BME280;10172;42.054;24.546;2023-03-26T00:38:26;97406.03;;;10.87;100.00
20023;BME280;10172;42.054;24.546;2023-03-26T00:40:53;97403.19;;;10.67;100.00
20023;BME280;10172;42.054;24.546;2023-03-26T00:43:20;97407.56;;;10.46;100.00
20023;BME280;10172;42.054;24.546;2023-03-26T00:45:51;97415.28;;;11.24;100.00
20023;BME280;10172;42.054;24.546;2023-03-26T00:48:19;97423.75;;;11.70;100.00
20023;BME280;10172;42.054;24.546;2023-03-26T00:50:45;97409.75;;;11.57;100.00
20023;BME280;10172;42.054;24.546;2023-03-26T00:53:12;97405.41;;;12.07;100.00
20023;BME280;10172;42.054;24.546;2023-03-26T00:55:42;97409.81;;;11.87;100.00
20023;BME280;10172;42.054;24.546;2023-03-26T00:58:09;97409.81;;;11.05;100.00
20023;BME280;10172;42.054;24.546;2023-03-26T01:00:37;97426.53;;;10.96;100.00
20023;BME280;10172;42.054;24.546;2023-03-26T01:03:04;97429.13;;;11.59;100.00
20023;BME280;10172;42.054;24.546;2023-03-26T01:08:01;97463.91;;;11.78;100.00
20023;BME280;10172;42.054;24.546;2023-03-26T01:10:28;97481.03;;;12.06;100.00
20023;BME280;10172;42.054;24.546;2023-03-26T01:12:54;97488.50;;;11.50;100.00
20023;BME280;10172;42.054;24.546;2023-03-26T01:15:20;97492.50;;;11.65;100.00
20023;BME280;10172;42.054;24.546;2023-03-26T01:17:47;97496.72;;;11.79;100.00
20023;BME280;10172;42.054;24.546;2023-03-26T01:20:22;97501.34;;;12.28;100.00
20023;BME280;10172;42.054;24.546;2023-03-26T01:22:53;97511.91;;;12.39;100.00
20023;BME280;10172;42.054;24.546;2023-03-26T01:25:22;97522.31;;;12.12;100.00
20023;BME280;10172;42.054;24.546;2023-03-26T01:27:53;97536.59;;;12.31;100.00
20023;BME280;10172;42.054;24.546;2023-03-26T01:30:41;97523.66;;;12.27;100.00
20023;BME280;10172;42.054;24.546;2023-03-26T01:33:40;97524.72;;;12.45;100.00
20023;BME280;10172;42.054;24.546;2023-03-26T01:36:18;97522.47;;;12.80;100.00
20023;BME280;10172;42.054;24.546;2023-03-26T01:39:34;97525.41;;;13.17;100.00
20023;BME280;10172;42.054;24.546;2023-03-26T01:42:05;97529.63;;;13.10;100.00
20023;BME280;10172;42.054;24.546;2023-03-26T01:44:38;97526.59;;;13.62;100.00
20023;BME280;10172;42.054;24.546;2023-03-26T01:47:06;97515.59;;;13.46;100.00
20023;BME280;10172;42.054;24.546;2023-03-26T01:49:33;97529.22;;;12.84;100.00
20023;BME280;10172;42.054;24.546;2023-03-26T01:51:59;97523.31;;;13.11;100.00
20023;BME280;10172;42.054;24.546;2023-03-26T01:54:27;97528.41;;;12.93;100.00
20023;BME280;10172;42.054;24.546;2023-03-26T02:00:24;97535.53;;;13.23;100.00
20023;BME280;10172;42.054;24.546;2023-03-26T02:06:22;97540.66;;;13.64;100.00
20023;BME280;10172;42.054;24.546;2023-03-26T02:08:55;97554.13;;;13.63;100.00
20023;BME280;10172;42.054;24.546;2023-03-26T02:11:22;97535.84;;;13.58;100.00
20023;BME280;10172;42.054;24.546;2023-03-26T02:13:48;97541.47;;;13.94;100.00
20023;BME280;10172;42.054;24.546;2023-03-26T02:16:16;97557.78;;;13.52;100.00
20023;BME280;10172;42.054;24.546;2023-03-26T02:18:44;97554.41;;;13.41;100.00
20023;BME280;10172;42.054;24.546;2023-03-26T02:23:41;97560.03;;;13.38;100.00
20023;BME280;10172;42.054;24.546;2023-03-26T02:26:13;97571.25;;;13.32;98.69
20023;BME280;10172;42.054;24.546;2023-03-26T02:28:39;97573.28;;;13.49;98.58
20023;BME280;10172;42.054;24.546;2023-03-26T02:31:05;97573.13;;;13.79;96.60
20023;BME280;10172;42.054;24.546;2023-03-26T02:33:34;97572.84;;;13.53;95.17
20023;BME280;10172;42.054;24.546;2023-03-26T02:36:00;97576.88;;;13.38;98.95
20023;BME280;10172;42.054;24.546;2023-03-26T02:38:30;97580.84;;;13.63;93.57
20023;BME280;10172;42.054;24.546;2023-03-26T02:41:02;97576.91;;;13.48;92.95
20023;BME280;10172;42.054;24.546;2023-03-26T02:43:28;97589.00;;;13.52;93.58
20023;BME280;10172;42.054;24.546;2023-03-26T02:45:54;97596.19;;;13.61;90.04
20023;BME280;10172;42.054;24.546;2023-03-26T02:48:20;97599.81;;;13.60;89.65
20023;BME280;10172;42.054;24.546;2023-03-26T02:50:46;97597.47;;;13.95;89.36
20023;BME280;10172;42.054;24.546;2023-03-26T02:53:15;97587.06;;;13.54;90.65
20023;BME280;10172;42.054;24.546;2023-03-26T02:55:41;97602.50;;;13.60;89.59
20023;BME280;10172;42.054;24.546;2023-03-26T02:58:06;97597.63;;;13.65;86.71
20023;BME280;10172;42.054;24.546;2023-03-26T03:00:33;97616.88;;;13.88;86.80
20023;BME280;10172;42.054;24.546;2023-03-26T03:02:59;97607.88;;;13.79;85.53
20023;BME280;10172;42.054;24.546;2023-03-26T03:05:27;97611.28;;;14.00;87.95
20023;BME280;10172;42.054;24.546;2023-03-26T03:07:56;97601.41;;;14.10;87.13
20023;BME280;10172;42.054;24.546;2023-03-26T03:10:23;97602.78;;;13.47;87.28
20023;BME280;10172;42.054;24.546;2023-03-26T03:12:49;97601.69;;;13.59;88.27
20023;BME280;10172;42.054;24.546;2023-03-26T03:15:14;97603.31;;;13.32;89.05
20023;BME280;10172;42.054;24.546;2023-03-26T03:17:40;97603.34;;;13.60;89.40
20023;BME280;10172;42.054;24.546;2023-03-26T03:20:06;97617.69;;;13.50;88.95
20023;BME280;10172;42.054;24.546;2023-03-26T03:22:36;97611.25;;;13.62;88.86
20023;BME280;10172;42.054;24.546;2023-03-26T03:25:03;97609.81;;;13.58;88.45
20023;BME280;10172;42.054;24.546;2023-03-26T03:27:29;97625.88;;;13.67;88.49
20023;BME280;10172;42.054;24.546;2023-03-26T03:29:55;97615.47;;;13.74;87.53
20023;BME280;10172;42.054;24.546;2023-03-26T03:32:21;97620.28;;;14.38;85.74
20023;BME280;10172;42.054;24.546;2023-03-26T03:34:48;97620.72;;;13.95;85.00
20023;BME280;10172;42.054;24.546;2023-03-26T03:37:17;97630.81;;;13.91;87.58
20023;BME280;10172;42.054;24.546;2023-03-26T03:39:43;97613.91;;;14.38;85.33
20023;BME280;10172;42.054;24.546;2023-03-26T03:42:09;97635.88;;;13.85;85.06
20023;BME280;10172;42.054;24.546;2023-03-26T03:44:34;97626.84;;;13.57;85.70
20023;BME280;10172;42.054;24.546;2023-03-26T03:47:00;97646.44;;;14.24;85.41
20023;BME280;10172;42.054;24.546;2023-03-26T03:49:25;97630.22;;;13.68;87.91
20023;BME280;10172;42.054;24.546;2023-03-26T03:51:51;97637.59;;;13.27;89.00
20023;BME280;10172;42.054;24.546;2023-03-26T03:54:16;97633.06;;;13.17;89.14
20023;BME280;10172;42.054;24.546;2023-03-26T03:56:42;97633.97;;;12.97;89.81
20023;BME280;10172;42.054;24.546;2023-03-26T03:59:10;97638.38;;;13.08;88.64
20023;BME280;10172;42.054;24.546;2023-03-26T04:01:36;97630.78;;;13.53;87.66
20023;BME280;10172;42.054;24.546;2023-03-26T04:04:02;97621.31;;;13.30;88.41
20023;BME280;10172;42.054;24.546;2023-03-26T04:06:28;97627.34;;;13.01;91.43
20023;BME280;10172;42.054;24.546;2023-03-26T04:08:55;97644.88;;;13.74;87.64
20023;BME280;10172;42.054;24.546;2023-03-26T04:11:20;97641.06;;;13.76;86.36
20023;BME280;10172;42.054;24.546;2023-03-26T04:13:46;97647.28;;;13.77;86.15
20023;BME280;10172;42.054;24.546;2023-03-26T04:16:12;97647.84;;;14.48;83.69
20023;BME280;10172;42.054;24.546;2023-03-26T04:18:37;97648.50;;;14.69;82.16
20023;BME280;10172;42.054;24.546;2023-03-26T04:21:04;97647.84;;;15.04;81.31
20023;BME280;10172;42.054;24.546;2023-03-26T04:23:32;97663.34;;;15.37;79.82
20023;BME280;10172;42.054;24.546;2023-03-26T04:26:01;97658.44;;;13.42;88.46
20023;BME280;10172;42.054;24.546;2023-03-26T04:28:50;97647.81;;;12.61;93.03
20023;BME280;10172;42.054;24.546;2023-03-26T04:31:19;97656.53;;;12.93;92.07
20023;BME280;10172;42.054;24.546;2023-03-26T04:33:54;97659.78;;;12.25;96.60
20023;BME280;10172;42.054;24.546;2023-03-26T04:36:28;97663.34;;;12.15;94.59
20023;BME280;10172;42.054;24.546;2023-03-26T04:38:57;97676.56;;;12.16;98.21
20023;BME280;10172;42.054;24.546;2023-03-26T04:41:29;97679.06;;;12.70;94.81
20023;BME280;10172;42.054;24.546;2023-03-26T04:43:56;97672.06;;;12.17;96.66
20023;BME280;10172;42.054;24.546;2023-03-26T04:46:26;97696.94;;;12.38;95.45
20023;BME280;10172;42.054;24.546;2023-03-26T04:48:53;97685.34;;;12.69;91.34
20023;BME280;10172;42.054;24.546;2023-03-26T04:51:22;97691.97;;;12.33;93.29
20023;BME280;10172;42.054;24.546;2023-03-26T04:53:57;97700.84;;;12.34;92.18
20023;BME280;10172;42.054;24.546;2023-03-26T04:59:18;97707.78;;;12.25;93.04
20023;BME280;10172;42.054;24.546;2023-03-26T05:01:50;97711.44;;;12.45;92.36
20023;BME280;10172;42.054;24.546;2023-03-26T05:04:16;97716.78;;;12.86;91.36
20023;BME280;10172;42.054;24.546;2023-03-26T05:06:41;97717.84;;;12.53;92.07
20023;BME280;10172;42.054;24.546;2023-03-26T05:09:07;97727.47;;;12.86;91.01
20023;BME280;10172;42.054;24.546;2023-03-26T05:11:35;97729.13;;;12.87;91.19
20023;BME280;10172;42.054;24.546;2023-03-26T05:14:00;97721.88;;;12.89;90.32
20023;BME280;10172;42.054;24.546;2023-03-26T05:16:27;97742.41;;;12.98;91.11
20023;BME280;10172;42.054;24.546;2023-03-26T05:18:52;97732.66;;;12.88;91.32
20023;BME280;10172;42.054;24.546;2023-03-26T05:21:18;97742.66;;;12.65;90.80
20023;BME280;10172;42.054;24.546;2023-03-26T05:23:44;97739.50;;;12.08;93.46
20023;BME280;10172;42.054;24.546;2023-03-26T05:26:10;97735.97;;;12.39;92.33
20023;BME280;10172;42.054;24.546;2023-03-26T05:28:35;97750.16;;;12.60;91.94
20023;BME280;10172;42.054;24.546;2023-03-26T05:31:01;97757.44;;;12.58;91.40
20023;BME280;10172;42.054;24.546;2023-03-26T05:33:26;97757.53;;;12.36;90.48
20023;BME280;10172;42.054;24.546;2023-03-26T05:36:07;97765.72;;;12.55;91.15
20023;BME280;10172;42.054;24.546;2023-03-26T05:38:34;97768.78;;;12.71;89.72
20023;BME280;10172;42.054;24.546;2023-03-26T05:41:05;97775.16;;;12.59;89.47
20023;BME280;10172;42.054;24.546;2023-03-26T05:43:32;97776.09;;;12.69;89.21
20023;BME280;10172;42.054;24.546;2023-03-26T05:45:58;97784.34;;;12.66;90.52
20023;BME280;10172;42.054;24.546;2023-03-26T05:48:24;97800.50;;;12.65;90.98
20023;BME280;10172;42.054;24.546;2023-03-26T05:50:52;97808.25;;;12.88;89.85
20023;BME280;10172;42.054;24.546;2023-03-26T05:53:19;97808.09;;;12.90;90.79
20023;BME280;10172;42.054;24.546;2023-03-26T05:55:45;97812.88;;;13.48;87.67
20023;BME280;10172;42.054;24.546;2023-03-26T05:58:12;97831.91;;;13.34;88.10
20023;BME280;10172;42.054;24.546;2023-03-26T06:00:38;97825.22;;;12.67;91.11
20023;BME280;10172;42.054;24.546;2023-03-26T06:03:04;97829.03;;;12.53;91.47
20023;BME280;10172;42.054;24.546;2023-03-26T06:05:34;97826.56;;;12.61;91.81
20023;BME280;10172;42.054;24.546;2023-03-26T06:08:02;97824.75;;;12.62;92.07
20023;BME280;10172;42.054;24.546;2023-03-26T06:10:28;97818.84;;;12.47;92.11
20023;BME280;10172;42.054;24.546;2023-03-26T06:12:53;97829.53;;;12.47;93.34
20023;BME280;10172;42.054;24.546;2023-03-26T06:15:19;97819.88;;;12.67;92.37
20023;BME280;10172;42.054;24.546;2023-03-26T06:17:44;97828.09;;;12.43;94.27
20023;BME280;10172;42.054;24.546;2023-03-26T06:20:10;97828.81;;;12.45;95.14
20023;BME280;10172;42.054;24.546;2023-03-26T06:22:36;97828.53;;;12.59;93.19
20023;BME280;10172;42.054;24.546;2023-03-26T06:25:02;97831.97;;;13.02;92.42
20023;BME280;10172;42.054;24.546;2023-03-26T06:27:27;97825.78;;;13.02;91.10
20023;BME280;10172;42.054;24.546;2023-03-26T06:29:53;97813.50;;;12.79;93.45
20023;BME280;10172;42.054;24.546;2023-03-26T06:32:19;97817.88;;;13.00;92.73
20023;BME280;10172;42.054;24.546;2023-03-26T06:34:44;97820.44;;;13.23;90.94
20023;BME280;10172;42.054;24.546;2023-03-26T06:37:10;97800.31;;;13.39;89.45
20023;BME280;10172;42.054;24.546;2023-03-26T06:39:35;97780.66;;;13.19;90.27
20023;BME280;10172;42.054;24.546;2023-03-26T06:42:01;97787.91;;;13.59;89.88
20023;BME280;10172;42.054;24.546;2023-03-26T06:44:26;97785.53;;;13.35;88.50
20023;BME280;10172;42.054;24.546;2023-03-26T06:46:52;97800.97;;;13.32;88.70
20023;BME280;10172;42.054;24.546;2023-03-26T06:49:17;97806.00;;;13.95;87.43
20023;BME280;10172;42.054;24.546;2023-03-26T06:51:43;97813.44;;;13.82;85.05
20023;BME280;10172;42.054;24.546;2023-03-26T06:54:10;97811.03;;;13.79;85.25
20023;BME280;10172;42.054;24.546;2023-03-26T06:56:36;97810.28;;;14.17;86.13
20023;BME280;10172;42.054;24.546;2023-03-26T06:59:01;97817.34;;;14.08;85.07
20023;BME280;10172;42.054;24.546;2023-03-26T07:01:27;97822.06;;;13.95;85.51
20023;BME280;10172;42.054;24.546;2023-03-26T07:03:52;97823.53;;;14.68;83.14
20023;BME280;10172;42.054;24.546;2023-03-26T07:06:18;97826.59;;;13.95;85.05
20023;BME280;10172;42.054;24.546;2023-03-26T07:08:43;97840.19;;;13.31;88.89
20023;BME280;10172;42.054;24.546;2023-03-26T07:11:09;97835.63;;;13.43;85.14
20023;BME280;10172;42.054;24.546;2023-03-26T07:13:34;97812.19;;;13.26;90.28
20023;BME280;10172;42.054;24.546;2023-03-26T07:16:01;97841.81;;;13.43;84.86
20023;BME280;10172;42.054;24.546;2023-03-26T07:18:27;97830.06;;;13.55;84.36
20023;BME280;10172;42.054;24.546;2023-03-26T07:20:53;97827.63;;;13.73;81.51
20023;BME280;10172;42.054;24.546;2023-03-26T07:23:18;97839.16;;;13.43;81.71
20023;BME280;10172;42.054;24.546;2023-03-26T07:25:46;97824.03;;;13.93;80.26
20023;BME280;10172;42.054;24.546;2023-03-26T07:31:09;97818.59;;;14.92;75.32
20023;BME280;10172;42.054;24.546;2023-03-26T07:33:49;97811.63;;;15.09;74.99
20023;BME280;10172;42.054;24.546;2023-03-26T07:36:27;97805.31;;;14.52;77.95
20023;BME280;10172;42.054;24.546;2023-03-26T07:42:07;97828.38;;;15.39;72.16
20023;BME280;10172;42.054;24.546;2023-03-26T07:44:55;97811.09;;;14.67;75.47
20023;BME280;10172;42.054;24.546;2023-03-26T07:47:26;97809.41;;;14.56;75.39
20023;BME280;10172;42.054;24.546;2023-03-26T07:49:54;97806.44;;;14.69;76.04
20023;BME280;10172;42.054;24.546;2023-03-26T07:52:22;97812.53;;;14.80;74.64
20023;BME280;10172;42.054;24.546;2023-03-26T07:54:48;97820.00;;;14.86;74.39
20023;BME280;10172;42.054;24.546;2023-03-26T08:08:15;97795.75;;;14.50;74.56
20023;BME280;10172;42.054;24.546;2023-03-26T08:11:06;97794.22;;;14.57;73.71
20023;BME280;10172;42.054;24.546;2023-03-26T08:16:53;97791.09;;;14.90;72.71
20023;BME280;10172;42.054;24.546;2023-03-26T08:27:42;97787.84;;;15.06;72.42
20023;BME280;10172;42.054;24.546;2023-03-26T08:30:23;97792.31;;;15.24;71.94
20023;BME280;10172;42.054;24.546;2023-03-26T08:33:03;97787.75;;;15.53;70.98
20023;BME280;10172;42.054;24.546;2023-03-26T08:35:35;97786.84;;;15.16;70.04
20023;BME280;10172;42.054;24.546;2023-03-26T08:38:09;97773.72;;;15.69;69.82
20023;BME280;10172;42.054;24.546;2023-03-26T08:41:03;97781.69;;;15.79;67.94
20023;BME280;10172;42.054;24.546;2023-03-26T08:52:05;97772.56;;;16.26;67.12
20023;BME280;10172;42.054;24.546;2023-03-26T08:54:46;97759.44;;;16.23;68.01
20023;BME280;10172;42.054;24.546;2023-03-26T09:14:36;97724.53;;;16.94;58.65
20023;BME280;10172;42.054;24.546;2023-03-26T09:17:21;97728.19;;;16.93;59.52
20023;BME280;10172;42.054;24.546;2023-03-26T09:25:24;97717.41;;;17.62;55.88
20023;BME280;10172;42.054;24.546;2023-03-26T09:36:31;97712.72;;;17.38;52.90
20023;BME280;10172;42.054;24.546;2023-03-26T09:44:54;97690.66;;;17.60;50.41
20023;BME280;10172;42.054;24.546;2023-03-26T09:47:33;97702.94;;;17.29;51.10
20023;BME280;10172;42.054;24.546;2023-03-26T10:04:47;97693.09;;;17.79;45.64
20023;BME280;10172;42.054;24.546;2023-03-26T10:10:42;97681.41;;;18.05;47.46
20023;BME280;10172;42.054;24.546;2023-03-26T10:16:28;97693.22;;;18.28;44.50
20023;BME280;10172;42.054;24.546;2023-03-26T10:21:49;97663.50;;;17.79;38.30
20023;BME280;10172;42.054;24.546;2023-03-26T10:29:49;97661.72;;;18.12;37.71
20023;BME280;10172;42.054;24.546;2023-03-26T10:32:43;97654.75;;;18.76;37.40
20023;BME280;10172;42.054;24.546;2023-03-26T10:41:15;97657.88;;;18.39;35.18
20023;BME280;10172;42.054;24.546;2023-03-26T10:56:46;97632.81;;;18.71;37.45
20023;BME280;10172;42.054;24.546;2023-03-26T10:59:15;97625.13;;;18.52;38.95
20023;BME280;10172;42.054;24.546;2023-03-26T11:05:06;97619.53;;;18.13;38.86
20023;BME280;10172;42.054;24.546;2023-03-26T11:08:03;97602.63;;;19.07;37.86
20023;BME280;10172;42.054;24.546;2023-03-26T11:15:49;97587.38;;;18.84;36.67
20023;BME280;10172;42.054;24.546;2023-03-26T11:21:32;97583.97;;;19.37;36.76
20023;BME280;10172;42.054;24.546;2023-03-26T11:34:44;97550.41;;;19.00;37.48
20023;BME280;10172;42.054;24.546;2023-03-26T11:37:17;97544.94;;;19.25;36.98
20023;BME280;10172;42.054;24.546;2023-03-26T11:39:49;97548.81;;;19.61;36.50
20023;BME280;10172;42.054;24.546;2023-03-26T11:42:17;97535.63;;;20.11;36.82
20023;BME280;10172;42.054;24.546;2023-03-26T11:44:54;97540.41;;;20.47;36.07
20023;BME280;10172;42.054;24.546;2023-03-26T11:47:31;97546.41;;;19.35;36.74
20023;BME280;10172;42.054;24.546;2023-03-26T11:50:01;97536.31;;;20.13;35.67
20023;BME280;10172;42.054;24.546;2023-03-26T11:52:28;97532.56;;;19.46;35.96
20023;BME280;10172;42.054;24.546;2023-03-26T11:54:54;97530.38;;;20.70;35.20
20023;BME280;10172;42.054;24.546;2023-03-26T11:57:28;97525.50;;;21.53;34.64
20023;BME280;10172;42.054;24.546;2023-03-26T12:00:05;97521.44;;;20.69;33.51
20023;BME280;10172;42.054;24.546;2023-03-26T12:02:43;97510.84;;;20.31;34.34
20023;BME280;10172;42.054;24.546;2023-03-26T12:07:54;97514.16;;;20.41;34.70
20023;BME280;10172;42.054;24.546;2023-03-26T12:10:25;97514.72;;;20.80;34.89
20023;BME280;10172;42.054;24.546;2023-03-26T12:12:53;97504.28;;;21.06;32.17
20023;BME280;10172;42.054;24.546;2023-03-26T12:15:20;97513.84;;;21.74;31.45
20023;BME280;10172;42.054;24.546;2023-03-26T12:17:49;97507.31;;;21.11;31.36
20023;BME280;10172;42.054;24.546;2023-03-26T12:22:56;97487.56;;;20.30;30.99
20023;BME280;10172;42.054;24.546;2023-03-26T12:25:32;97492.31;;;20.05;30.51
20023;BME280;10172;42.054;24.546;2023-03-26T12:30:36;97485.09;;;19.83;31.31
20023;BME280;10172;42.054;24.546;2023-03-26T12:33:14;97486.53;;;19.71;31.42
20023;BME280;10172;42.054;24.546;2023-03-26T12:35:42;97480.94;;;19.49;30.92
20023;BME280;10172;42.054;24.546;2023-03-26T12:38:33;97487.06;;;19.89;30.59
20023;BME280;10172;42.054;24.546;2023-03-26T12:43:39;97472.94;;;20.39;30.92
20023;BME280;10172;42.054;24.546;2023-03-26T12:46:23;97467.69;;;21.39;30.23
20023;BME280;10172;42.054;24.546;2023-03-26T12:48:54;97466.63;;;20.61;29.26
20023;BME280;10172;42.054;24.546;2023-03-26T12:51:45;97457.69;;;20.46;30.42
20023;BME280;10172;42.054;24.546;2023-03-26T13:00:37;97438.81;;;20.23;29.97
20023;BME280;10172;42.054;24.546;2023-03-26T13:05:35;97454.31;;;20.29;29.47
20023;BME280;10172;42.054;24.546;2023-03-26T13:13:46;97446.94;;;19.86;28.01
20023;BME280;10172;42.054;24.546;2023-03-26T13:19:01;97423.13;;;20.26;28.66
20023;BME280;10172;42.054;24.546;2023-03-26T13:21:44;97417.34;;;20.44;29.18
20023;BME280;10172;42.054;24.546;2023-03-26T13:30:04;97406.09;;;20.41;28.09
20023;BME280;10172;42.054;24.546;2023-03-26T13:32:57;97410.75;;;20.76;27.11
20023;BME280;10172;42.054;24.546;2023-03-26T13:36:08;97408.09;;;20.97;27.43
20023;BME280;10172;42.054;24.546;2023-03-26T13:38:46;97408.47;;;20.79;27.81
20023;BME280;10172;42.054;24.546;2023-03-26T13:44:29;97414.19;;;21.20;27.90
20023;BME280;10172;42.054;24.546;2023-03-26T13:47:22;97408.03;;;20.47;28.06
20023;BME280;10172;42.054;24.546;2023-03-26T13:49:52;97413.75;;;21.17;27.89
20023;BME280;10172;42.054;24.546;2023-03-26T13:52:32;97405.84;;;21.58;27.46
20023;BME280;10172;42.054;24.546;2023-03-26T13:55:18;97405.34;;;21.26;27.69
20023;BME280;10172;42.054;24.546;2023-03-26T14:01:00;97407.78;;;21.64;27.78
20023;BME280;10172;42.054;24.546;2023-03-26T14:03:54;97412.22;;;21.71;27.23
20023;BME280;10172;42.054;24.546;2023-03-26T14:06:51;97399.16;;;22.24;25.92
20023;BME280;10172;42.054;24.546;2023-03-26T14:09:35;97402.22;;;21.72;27.33
20023;BME280;10172;42.054;24.546;2023-03-26T14:15:02;97415.84;;;20.85;26.92
20023;BME280;10172;42.054;24.546;2023-03-26T14:17:48;97408.41;;;21.66;27.24
20023;BME280;10172;42.054;24.546;2023-03-26T14:43:10;97403.41;;;22.12;25.74
20023;BME280;10172;42.054;24.546;2023-03-26T14:51:49;97396.72;;;21.59;24.38
20023;BME280;10172;42.054;24.546;2023-03-26T14:54:22;97390.72;;;22.12;24.26
20023;BME280;10172;42.054;24.546;2023-03-26T15:11:33;97366.28;;;23.28;22.91
20023;BME280;10172;42.054;24.546;2023-03-26T15:23:10;97345.44;;;22.34;20.89
20023;BME280;10172;42.054;24.546;2023-03-26T15:26:17;97343.34;;;22.36;21.35
20023;BME280;10172;42.054;24.546;2023-03-26T15:40:56;97357.84;;;21.87;22.74
20023;BME280;10172;42.054;24.546;2023-03-26T15:43:30;97351.31;;;22.37;22.57
20023;BME280;10172;42.054;24.546;2023-03-26T15:46:50;97367.19;;;22.47;22.96
20023;BME280;10172;42.054;24.546;2023-03-26T15:49:28;97366.94;;;22.35;22.92
20023;BME280;10172;42.054;24.546;2023-03-26T15:54:44;97370.09;;;22.80;22.96
20023;BME280;10172;42.054;24.546;2023-03-26T15:57:18;97383.09;;;23.04;22.79
20023;BME280;10172;42.054;24.546;2023-03-26T16:00:40;97372.25;;;22.22;22.76
20023;BME280;10172;42.054;24.546;2023-03-26T16:11:54;97372.72;;;21.77;23.57
20023;BME280;10172;42.054;24.546;2023-03-26T16:14:37;97386.78;;;21.66;23.17
20023;BME280;10172;42.054;24.546;2023-03-26T16:17:11;97387.63;;;21.24;23.27
20023;BME280;10172;42.054;24.546;2023-03-26T16:22:10;97390.53;;;21.65;24.06
20023;BME280;10172;42.054;24.546;2023-03-26T16:24:39;97390.13;;;21.68;25.63
20023;BME280;10172;42.054;24.546;2023-03-26T16:27:26;97390.50;;;21.86;25.68
20023;BME280;10172;42.054;24.546;2023-03-26T16:32:33;97401.66;;;21.34;25.82
20023;BME280;10172;42.054;24.546;2023-03-26T16:37:40;97404.47;;;19.42;29.12
20023;BME280;10172;42.054;24.546;2023-03-26T16:48:37;97408.63;;;17.73;34.28
20023;BME280;10172;42.054;24.546;2023-03-26T16:51:23;97413.63;;;17.28;34.38
20023;BME280;10172;42.054;24.546;2023-03-26T17:04:45;97428.25;;;17.50;34.75
20023;BME280;10172;42.054;24.546;2023-03-26T17:07:20;97420.38;;;17.48;35.25
20023;BME280;10172;42.054;24.546;2023-03-26T17:15:42;97438.31;;;16.06;37.76
20023;BME280;10172;42.054;24.546;2023-03-26T17:18:23;97447.75;;;15.67;38.62
20023;BME280;10172;42.054;24.546;2023-03-26T17:21:16;97441.72;;;15.65;40.24
20023;BME280;10172;42.054;24.546;2023-03-26T17:26:26;97461.41;;;15.38;40.58
20023;BME280;10172;42.054;24.546;2023-03-26T17:31:42;97462.47;;;15.63;39.60
20023;BME280;10172;42.054;24.546;2023-03-26T17:37:24;97464.09;;;15.99;39.08
20023;BME280;10172;42.054;24.546;2023-03-26T17:43:11;97476.81;;;14.64;42.67
20023;BME280;10172;42.054;24.546;2023-03-26T17:45:48;97478.25;;;14.58;42.38
20023;BME280;10172;42.054;24.546;2023-03-26T17:48:18;97481.00;;;14.29;43.18
20023;BME280;10172;42.054;24.546;2023-03-26T17:50:54;97486.19;;;14.31;42.83
20023;BME280;10172;42.054;24.546;2023-03-26T17:53:29;97487.63;;;14.25;43.51
20023;BME280;10172;42.054;24.546;2023-03-26T17:56:20;97487.31;;;13.82;43.80
20023;BME280;10172;42.054;24.546;2023-03-26T17:58:50;97490.59;;;13.57;44.92
20023;BME280;10172;42.054;24.546;2023-03-26T18:01:31;97492.78;;;13.90;43.41
20023;BME280;10172;42.054;24.546;2023-03-26T18:04:01;97482.84;;;14.66;41.91
20023;BME280;10172;42.054;24.546;2023-03-26T18:09:07;97494.59;;;13.99;43.48
20023;BME280;10172;42.054;24.546;2023-03-26T18:17:38;97494.50;;;13.53;46.39
20023;BME280;10172;42.054;24.546;2023-03-26T18:20:05;97499.28;;;13.21;47.12
20023;BME280;10172;42.054;24.546;2023-03-26T18:22:30;97499.88;;;13.62;45.86
20023;BME280;10172;42.054;24.546;2023-03-26T18:24:59;97495.06;;;13.56;46.34
20023;BME280;10172;42.054;24.546;2023-03-26T18:27:31;97497.56;;;13.19;47.25
20023;BME280;10172;42.054;24.546;2023-03-26T18:30:12;97495.88;;;13.09;47.91
20023;BME280;10172;42.054;24.546;2023-03-26T18:32:48;97493.78;;;13.60;47.41
20023;BME280;10172;42.054;24.546;2023-03-26T18:35:19;97500.69;;;13.63;46.85
20023;BME280;10172;42.054;24.546;2023-03-26T18:37:47;97493.25;;;13.38;47.53
20023;BME280;10172;42.054;24.546;2023-03-26T18:40:19;97498.03;;;13.25;47.08
20023;BME280;10172;42.054;24.546;2023-03-26T18:42:54;97489.28;;;13.80;45.49